createdAt,value
2017-12-27T00:00:22.059Z,1.67
2017-12-27T00:02:56.959Z,1.70
2017-12-27T00:05:31.407Z,1.90
2017-12-27T00:08:05.285Z,1.57
2017-12-27T00:13:42.884Z,2.00
2017-12-27T00:16:17.258Z,2.30
2017-12-27T00:18:51.270Z,2.10
2017-12-27T00:21:26.227Z,1.90
2017-12-27T00:24:01.608Z,2.17
2017-12-27T00:26:37.219Z,1.80
2017-12-27T00:29:12.474Z,2.60
2017-12-27T00:31:42.385Z,1.80
2017-12-27T00:34:11.766Z,2.07
2017-12-27T00:36:40.378Z,2.20
2017-12-27T00:39:09.228Z,2.07
2017-12-27T00:41:37.899Z,2.00
2017-12-27T00:44:06.291Z,2.23
2017-12-27T00:46:35.159Z,2.20
2017-12-27T00:49:03.973Z,2.33
2017-12-27T00:51:34.007Z,2.07
2017-12-27T00:54:04.529Z,2.03
2017-12-27T00:56:33.323Z,2.33
2017-12-27T00:59:03.667Z,2.47
2017-12-27T01:01:33.697Z,1.70
2017-12-27T01:04:02.515Z,2.50
2017-12-27T01:06:36.763Z,2.17
2017-12-27T01:09:06.293Z,2.87
2017-12-27T01:11:35.304Z,2.40
2017-12-27T01:14:04.902Z,2.20
2017-12-27T01:16:34.840Z,2.10
2017-12-27T01:19:03.537Z,2.00
2017-12-27T01:21:33.007Z,2.07
2017-12-27T01:24:02.810Z,1.77
2017-12-27T01:26:31.542Z,2.17
2017-12-27T01:29:00.366Z,2.10
2017-12-27T01:31:29.302Z,2.47
2017-12-27T01:33:57.661Z,2.17
2017-12-27T01:36:26.714Z,2.43
2017-12-27T01:38:56.468Z,2.60
2017-12-27T01:41:24.828Z,2.60
2017-12-27T01:43:53.484Z,3.00
2017-12-27T01:46:23.032Z,2.53
2017-12-27T01:48:51.845Z,2.67
2017-12-27T01:51:21.001Z,2.63
2017-12-27T01:53:49.890Z,1.93
2017-12-27T01:56:18.510Z,2.20
2017-12-27T01:58:47.244Z,2.00
2017-12-27T02:01:16.518Z,2.33
2017-12-27T02:03:44.862Z,3.10
2017-12-27T02:06:13.804Z,2.63
2017-12-27T02:08:42.453Z,2.70
2017-12-27T02:11:10.898Z,2.30
2017-12-27T02:13:39.788Z,2.60
2017-12-27T02:16:08.631Z,2.47
2017-12-27T02:18:38.002Z,2.60
2017-12-27T02:21:08.079Z,2.90
2017-12-27T02:23:36.745Z,2.93
2017-12-27T02:26:05.575Z,2.80
2017-12-27T02:28:34.278Z,2.53
2017-12-27T02:31:03.125Z,3.10
2017-12-27T02:33:32.027Z,2.90
2017-12-27T02:36:01.052Z,2.53
2017-12-27T02:38:48.169Z,2.93
2017-12-27T02:41:17.231Z,2.77
2017-12-27T02:43:46.860Z,2.50
2017-12-27T02:46:15.553Z,2.90
2017-12-27T02:48:44.293Z,3.07
2017-12-27T02:51:12.663Z,2.60
2017-12-27T02:53:41.921Z,3.47
2017-12-27T02:56:12.003Z,2.37
2017-12-27T02:58:40.578Z,2.53
2017-12-27T03:01:09.335Z,2.50
2017-12-27T03:03:38.169Z,3.20
2017-12-27T03:06:06.540Z,2.90
2017-12-27T03:08:35.138Z,2.43
2017-12-27T03:11:04.305Z,2.70
2017-12-27T03:13:33.306Z,3.23
2017-12-27T03:16:03.197Z,2.90
2017-12-27T03:18:32.408Z,2.53
2017-12-27T03:21:00.887Z,3.20
2017-12-27T03:23:30.800Z,2.67
2017-12-27T03:25:59.787Z,2.93
2017-12-27T03:28:28.985Z,2.77
2017-12-27T03:30:58.367Z,3.20
2017-12-27T03:33:27.963Z,3.03
2017-12-27T03:35:57.680Z,3.00
2017-12-27T03:38:27.692Z,3.00
2017-12-27T03:40:56.181Z,2.50
2017-12-27T03:43:25.754Z,2.87
2017-12-27T03:45:55.710Z,2.80
2017-12-27T03:48:24.679Z,2.73
2017-12-27T03:50:54.644Z,3.13
2017-12-27T03:53:24.716Z,3.00
2017-12-27T03:55:53.599Z,3.00
2017-12-27T03:58:22.956Z,2.30
2017-12-27T04:00:52.638Z,3.00
2017-12-27T04:03:21.522Z,2.63
2017-12-27T04:05:51.456Z,3.03
2017-12-27T04:08:21.531Z,2.50
2017-12-27T04:10:50.243Z,2.53
2017-12-27T04:13:19.840Z,3.17
2017-12-27T04:15:49.806Z,2.43
2017-12-27T04:18:19.024Z,3.07
2017-12-27T04:20:48.570Z,2.80
2017-12-27T04:23:18.380Z,2.70
2017-12-27T04:25:47.468Z,2.97
2017-12-27T04:28:17.010Z,3.13
2017-12-27T04:30:45.844Z,3.00
2017-12-27T04:33:14.227Z,2.30
2017-12-27T04:35:42.782Z,3.67
2017-12-27T04:38:11.639Z,2.53
2017-12-27T04:40:40.060Z,3.53
2017-12-27T04:43:09.121Z,3.67
2017-12-27T04:45:38.418Z,3.60
2017-12-27T04:48:07.448Z,3.93
2017-12-27T04:50:36.273Z,3.30
2017-12-27T04:53:05.918Z,3.03
2017-12-27T04:55:35.264Z,3.90
2017-12-27T04:58:05.209Z,4.03
2017-12-27T05:00:33.698Z,4.10
2017-12-27T05:03:02.681Z,5.27
2017-12-27T05:05:32.411Z,4.30
2017-12-27T05:08:00.854Z,4.43
2017-12-27T05:10:30.457Z,4.47
2017-12-27T05:13:00.810Z,4.20
2017-12-27T05:15:29.661Z,4.20
2017-12-27T05:17:58.931Z,5.00
2017-12-27T05:20:28.391Z,4.53
2017-12-27T05:22:57.612Z,4.20
2017-12-27T05:25:27.378Z,4.13
2017-12-27T05:27:57.108Z,4.40
2017-12-27T05:30:26.506Z,3.77
2017-12-27T05:32:56.611Z,4.10
2017-12-27T05:35:26.170Z,4.00
2017-12-27T05:37:54.895Z,4.27
2017-12-27T05:40:24.971Z,4.03
2017-12-27T05:42:53.377Z,4.03
2017-12-27T05:45:22.622Z,3.90
2017-12-27T05:47:51.791Z,3.63
2017-12-27T05:50:21.024Z,3.80
2017-12-27T05:52:50.986Z,3.70
2017-12-27T05:55:19.561Z,3.57
2017-12-27T05:57:48.410Z,3.50
2017-12-27T06:00:18.061Z,3.07
2017-12-27T06:02:46.655Z,3.20
2017-12-27T06:05:16.267Z,3.57
2017-12-27T06:07:45.482Z,3.17
2017-12-27T06:10:13.977Z,2.80
2017-12-27T06:12:42.928Z,2.97
2017-12-27T06:15:12.784Z,2.80
2017-12-27T06:17:41.638Z,3.00
2017-12-27T06:20:10.220Z,4.37
2017-12-27T06:22:40.180Z,4.00
2017-12-27T06:25:08.965Z,3.23
2017-12-27T06:27:37.917Z,3.17
2017-12-27T06:30:06.903Z,3.00
2017-12-27T06:32:35.577Z,3.60
2017-12-27T06:35:04.858Z,5.57
2017-12-27T06:37:33.593Z,4.73
2017-12-27T06:40:03.383Z,5.50
2017-12-27T06:42:33.175Z,5.40
2017-12-27T06:45:01.909Z,3.00
2017-12-27T06:47:31.734Z,3.53
2017-12-27T06:50:01.570Z,2.47
2017-12-27T06:52:30.746Z,5.00
2017-12-27T06:55:00.693Z,4.83
2017-12-27T06:57:30.104Z,6.37
2017-12-27T06:59:58.717Z,3.97
2017-12-27T07:02:27.968Z,2.90
2017-12-27T07:04:57.229Z,3.10
2017-12-27T07:07:25.569Z,3.87
2017-12-27T07:09:54.178Z,3.20
2017-12-27T07:12:22.849Z,3.63
2017-12-27T07:14:52.354Z,4.07
2017-12-27T07:17:21.786Z,3.90
2017-12-27T07:19:50.427Z,3.70
2017-12-27T07:22:18.783Z,2.57
2017-12-27T07:24:48.719Z,3.30
2017-12-27T07:27:18.100Z,3.50
2017-12-27T07:29:47.241Z,3.30
2017-12-27T07:32:17.144Z,3.00
2017-12-27T07:34:46.336Z,3.30
2017-12-27T07:37:15.975Z,3.53
2017-12-27T07:39:45.951Z,3.63
2017-12-27T07:42:14.805Z,3.90
2017-12-27T07:44:44.610Z,4.27
2017-12-27T07:47:13.328Z,4.50
2017-12-27T07:49:42.772Z,4.90
2017-12-27T07:52:12.403Z,4.80
2017-12-27T07:54:42.056Z,4.60
2017-12-27T07:57:11.341Z,4.80
2017-12-27T07:59:41.486Z,4.40
2017-12-27T08:02:11.056Z,4.70
2017-12-27T08:04:40.570Z,4.90
2017-12-27T08:07:09.754Z,4.53
2017-12-27T08:09:39.584Z,9.50
2017-12-27T08:12:09.237Z,8.17
2017-12-27T08:14:38.641Z,5.40
2017-12-27T08:17:08.612Z,9.73
2017-12-27T08:19:37.762Z,7.90
2017-12-27T08:22:07.641Z,6.23
2017-12-27T08:24:36.916Z,4.93
2017-12-27T08:27:06.189Z,6.00
2017-12-27T08:29:36.825Z,5.47
2017-12-27T08:32:06.542Z,5.73
2017-12-27T08:34:35.239Z,6.27
2017-12-27T08:37:04.192Z,6.23
2017-12-27T08:39:34.990Z,6.17
2017-12-27T08:42:03.739Z,6.17
2017-12-27T08:44:32.515Z,6.60
2017-12-27T08:47:01.476Z,6.70
2017-12-27T08:49:30.473Z,8.43
2017-12-27T08:51:59.171Z,6.10
2017-12-27T08:54:27.684Z,7.17
2017-12-27T08:56:56.040Z,9.03
2017-12-27T08:59:25.282Z,7.93
2017-12-27T09:01:54.047Z,6.60
2017-12-27T09:04:22.395Z,6.50
2017-12-27T09:06:50.846Z,7.93
2017-12-27T09:09:19.269Z,7.30
2017-12-27T09:11:47.734Z,7.87
2017-12-27T09:14:16.082Z,7.00
2017-12-27T09:16:44.503Z,6.43
2017-12-27T09:19:12.839Z,7.50
2017-12-27T09:21:41.275Z,7.97
2017-12-27T09:24:09.745Z,7.33
2017-12-27T09:26:38.111Z,6.50
2017-12-27T09:29:06.452Z,7.10
2017-12-27T09:31:34.816Z,7.13
2017-12-27T09:34:03.567Z,7.70
2017-12-27T09:36:31.949Z,10.53
2017-12-27T09:39:00.425Z,8.37
2017-12-27T09:41:28.955Z,6.93
2017-12-27T09:43:57.709Z,9.30
2017-12-27T09:46:26.187Z,6.80
2017-12-27T09:48:54.520Z,6.37
2017-12-27T09:51:22.856Z,7.13
2017-12-27T09:53:51.314Z,7.03
2017-12-27T09:56:19.707Z,7.40
2017-12-27T09:58:48.244Z,6.53
2017-12-27T10:01:16.620Z,6.70
2017-12-27T10:03:44.977Z,6.57
2017-12-27T10:06:13.834Z,6.90
2017-12-27T10:08:42.217Z,7.00
2017-12-27T10:11:10.589Z,8.40
2017-12-27T10:13:38.978Z,7.43
2017-12-27T10:16:07.443Z,7.63
2017-12-27T10:18:35.801Z,7.50
2017-12-27T10:21:04.151Z,7.50
2017-12-27T10:23:32.524Z,6.50
2017-12-27T10:26:01.301Z,7.60
2017-12-27T10:28:29.835Z,8.13
2017-12-27T10:30:58.212Z,7.60
2017-12-27T10:33:26.599Z,8.00
2017-12-27T10:35:54.992Z,6.30
2017-12-27T10:38:23.351Z,7.30
2017-12-27T10:40:52.646Z,7.87
2017-12-27T10:43:20.988Z,7.70
2017-12-27T10:45:49.825Z,6.90
2017-12-27T10:48:18.217Z,7.67
2017-12-27T10:50:46.564Z,8.00
2017-12-27T10:53:14.935Z,8.20
2017-12-27T10:55:43.344Z,7.20
2017-12-27T10:58:11.695Z,8.13
2017-12-27T11:00:40.175Z,7.90
2017-12-27T11:03:08.536Z,10.73
2017-12-27T11:05:36.953Z,8.10
2017-12-27T11:08:05.323Z,10.60
2017-12-27T11:10:33.671Z,11.63
2017-12-27T11:13:02.100Z,7.67
2017-12-27T11:15:30.564Z,9.83
2017-12-27T11:17:58.924Z,9.33
2017-12-27T11:20:27.274Z,8.80
2017-12-27T11:22:56.123Z,8.00
2017-12-27T11:25:24.489Z,8.60
2017-12-27T11:27:52.856Z,8.03
2017-12-27T11:30:21.247Z,7.50
2017-12-27T11:32:49.608Z,8.70
2017-12-27T11:35:18.009Z,8.10
2017-12-27T11:37:46.368Z,7.83
2017-12-27T11:40:14.723Z,7.87
2017-12-27T11:42:43.551Z,7.30
2017-12-27T11:45:11.926Z,7.80
2017-12-27T11:47:40.287Z,7.20
2017-12-27T11:50:08.695Z,7.33
2017-12-27T11:52:37.074Z,8.60
2017-12-27T11:55:05.427Z,8.00
2017-12-27T11:57:33.775Z,7.53
2017-12-27T12:00:02.630Z,7.83
2017-12-27T12:02:30.979Z,7.67
2017-12-27T12:04:59.376Z,7.40
2017-12-27T12:07:27.813Z,8.00
2017-12-27T12:09:56.155Z,8.07
2017-12-27T12:12:24.500Z,7.43
2017-12-27T12:14:52.884Z,6.70
2017-12-27T12:17:21.272Z,7.90
2017-12-27T12:19:49.624Z,7.10
2017-12-27T12:22:18.030Z,6.97
2017-12-27T12:24:46.485Z,6.40
2017-12-27T12:27:14.849Z,7.60
2017-12-27T12:29:43.208Z,7.47
2017-12-27T12:32:12.034Z,7.50
2017-12-27T12:34:40.376Z,7.20
2017-12-27T12:37:09.297Z,6.77
2017-12-27T12:39:37.640Z,6.13
2017-12-27T12:42:06.380Z,6.33
2017-12-27T12:44:34.751Z,6.73
2017-12-27T12:47:03.147Z,5.87
2017-12-27T12:49:31.488Z,8.07
2017-12-27T12:51:59.907Z,7.03
2017-12-27T12:54:28.283Z,7.07
2017-12-27T12:56:56.629Z,6.93
2017-12-27T12:59:25.044Z,6.00
2017-12-27T13:01:53.388Z,4.60
2017-12-27T13:04:21.796Z,5.60
2017-12-27T13:06:50.160Z,6.00
2017-12-27T13:09:18.521Z,5.77
2017-12-27T13:11:46.867Z,6.40
2017-12-27T13:14:15.228Z,6.20
2017-12-27T13:16:43.572Z,6.00
2017-12-27T13:19:12.069Z,6.00
2017-12-27T13:21:40.443Z,5.00
2017-12-27T13:24:08.803Z,5.73
2017-12-27T13:26:37.150Z,6.50
2017-12-27T13:29:05.957Z,6.00
2017-12-27T13:31:34.318Z,5.80
2017-12-27T13:34:03.056Z,6.07
2017-12-27T13:36:31.412Z,6.40
2017-12-27T13:38:59.772Z,6.03
2017-12-27T13:41:28.617Z,6.40
2017-12-27T13:43:56.978Z,6.30
2017-12-27T13:46:25.327Z,6.20
2017-12-27T13:48:53.682Z,5.80
2017-12-27T13:51:22.448Z,7.07
2017-12-27T13:53:50.812Z,6.47
2017-12-27T13:56:19.194Z,7.20
2017-12-27T13:58:47.560Z,6.00
2017-12-27T14:01:15.956Z,6.50
2017-12-27T14:03:44.426Z,7.80
2017-12-27T14:06:12.791Z,7.07
2017-12-27T14:08:41.133Z,6.73
2017-12-27T14:11:09.969Z,7.20
2017-12-27T14:13:38.328Z,7.80
2017-12-27T14:16:06.702Z,8.30
2017-12-27T14:18:35.120Z,8.23
2017-12-27T14:21:03.596Z,8.90
2017-12-27T14:23:31.963Z,8.57
2017-12-27T14:26:00.335Z,8.43
2017-12-27T14:28:28.731Z,8.90
2017-12-27T14:30:57.104Z,8.27
2017-12-27T14:33:25.493Z,9.93
2017-12-27T14:35:53.954Z,10.23
2017-12-27T14:38:22.341Z,9.47
2017-12-27T14:40:50.692Z,9.23
2017-12-27T14:43:19.095Z,10.60
2017-12-27T14:45:47.483Z,10.20
2017-12-27T14:48:16.548Z,9.50
2017-12-27T14:50:44.924Z,11.03
2017-12-27T14:53:13.267Z,10.83
2017-12-27T14:55:42.009Z,10.37
2017-12-27T14:58:10.404Z,10.93
2017-12-27T15:00:38.758Z,11.40
2017-12-27T15:03:07.145Z,11.40
2017-12-27T15:05:35.533Z,10.87
2017-12-27T15:08:03.989Z,10.97
2017-12-27T15:10:32.332Z,11.73
2017-12-27T15:13:01.188Z,10.93
2017-12-27T15:15:29.548Z,11.10
2017-12-27T15:17:57.948Z,12.00
2017-12-27T15:20:26.414Z,11.90
2017-12-27T15:22:54.882Z,10.90
2017-12-27T15:25:23.276Z,11.80
2017-12-27T15:27:51.648Z,11.60
2017-12-27T15:30:20.146Z,13.50
2017-12-27T15:32:48.525Z,12.30
2017-12-27T15:35:16.994Z,11.73
2017-12-27T15:37:45.346Z,10.50
2017-12-27T15:40:13.712Z,12.07
2017-12-27T15:42:42.104Z,11.83
2017-12-27T15:45:10.439Z,10.40
2017-12-27T15:47:38.818Z,10.67
2017-12-27T15:50:07.188Z,11.83
2017-12-27T15:52:35.560Z,11.40
2017-12-27T15:55:03.931Z,11.47
2017-12-27T15:57:32.408Z,13.03
2017-12-27T16:00:00.768Z,11.40
2017-12-27T16:02:29.121Z,13.17
2017-12-27T16:04:58.701Z,13.50
2017-12-27T16:07:27.048Z,15.10
2017-12-27T16:09:55.397Z,15.90
2017-12-27T16:12:23.767Z,14.50
2017-12-27T16:14:52.176Z,12.57
2017-12-27T16:17:20.529Z,11.70
2017-12-27T16:19:48.926Z,12.33
2017-12-27T16:22:17.320Z,12.70
2017-12-27T16:24:45.673Z,14.20
2017-12-27T16:27:14.035Z,15.23
2017-12-27T16:29:42.409Z,13.40
2017-12-27T16:32:11.153Z,12.77
2017-12-27T16:34:39.616Z,13.80
2017-12-27T16:37:08.078Z,11.57
2017-12-27T16:39:36.431Z,12.93
2017-12-27T16:42:04.814Z,11.80
2017-12-27T16:44:33.172Z,14.33
2017-12-27T16:47:01.520Z,14.10
2017-12-27T16:49:29.891Z,14.03
2017-12-27T16:51:58.252Z,14.40
2017-12-27T16:54:26.603Z,14.80
2017-12-27T16:56:55.032Z,13.17
2017-12-27T16:59:23.385Z,13.50
2017-12-27T17:01:51.797Z,14.10
2017-12-27T17:04:20.169Z,14.17
2017-12-27T17:06:48.516Z,12.40
2017-12-27T17:09:16.868Z,14.20
2017-12-27T17:11:45.632Z,15.30
2017-12-27T17:14:13.980Z,16.70
2017-12-27T17:16:42.364Z,16.90
2017-12-27T17:19:10.749Z,23.30
2017-12-27T17:21:39.112Z,26.27
2017-12-27T17:24:07.464Z,34.20
2017-12-27T17:26:35.834Z,48.23
2017-12-27T17:29:04.575Z,79.33
2017-12-27T17:31:32.947Z,86.93
2017-12-27T17:34:01.437Z,90.37
2017-12-27T17:36:30.038Z,70.60
2017-12-27T17:38:58.395Z,48.07
2017-12-27T17:41:26.776Z,39.40
2017-12-27T17:43:55.154Z,30.17
2017-12-27T17:46:23.521Z,24.20
2017-12-27T17:48:51.926Z,19.10
2017-12-27T17:51:20.272Z,16.93
2017-12-27T17:53:48.660Z,16.43
2017-12-27T17:56:17.020Z,15.60
2017-12-27T17:58:45.365Z,16.40
2017-12-27T18:01:14.111Z,16.60
2017-12-27T18:03:42.483Z,16.30
2017-12-27T18:06:10.824Z,15.60
2017-12-27T18:08:39.178Z,17.63
2017-12-27T18:11:07.967Z,15.80
2017-12-27T18:13:36.820Z,15.90
2017-12-27T18:16:05.200Z,17.10
2017-12-27T18:18:33.572Z,15.90
2017-12-27T18:21:01.917Z,15.50
2017-12-27T18:23:30.252Z,16.80
2017-12-27T18:25:58.746Z,15.27
2017-12-27T18:28:27.489Z,17.20
2017-12-27T18:30:55.828Z,17.23
2017-12-27T18:33:24.643Z,15.40
2017-12-27T18:35:53.056Z,16.93
2017-12-27T18:38:21.540Z,17.97
2017-12-27T18:40:49.920Z,17.63
2017-12-27T18:43:18.269Z,17.83
2017-12-27T18:45:46.615Z,18.10
2017-12-27T18:48:15.956Z,18.07
2017-12-27T18:50:44.315Z,15.83
2017-12-27T18:53:12.711Z,15.90
2017-12-27T18:55:41.086Z,18.20
2017-12-27T18:58:09.458Z,18.27
2017-12-27T19:00:37.812Z,17.47
2017-12-27T19:03:06.567Z,16.63
2017-12-27T19:05:34.920Z,17.63
2017-12-27T19:08:03.272Z,15.97
2017-12-27T19:10:31.643Z,18.20
2017-12-27T19:12:59.983Z,15.20
2017-12-27T19:15:28.329Z,19.33
2017-12-27T19:17:56.709Z,17.80
2017-12-27T19:20:25.053Z,17.77
2017-12-27T19:22:53.400Z,17.73
2017-12-27T19:25:21.771Z,17.73
2017-12-27T19:27:50.126Z,19.00
2017-12-27T19:30:18.505Z,17.50
2017-12-27T19:32:46.895Z,19.80
2017-12-27T19:35:15.262Z,18.43
2017-12-27T19:37:43.656Z,19.83
2017-12-27T19:40:12.115Z,18.67
2017-12-27T19:42:40.457Z,19.20
2017-12-27T19:45:09.262Z,19.67
2017-12-27T19:47:37.670Z,19.87
2017-12-27T19:50:06.021Z,20.67
2017-12-27T19:52:34.372Z,20.20
2017-12-27T19:55:03.214Z,19.60
2017-12-27T19:57:31.565Z,20.33
2017-12-27T19:59:59.972Z,19.60
2017-12-27T20:02:28.363Z,18.83
2017-12-27T20:04:56.715Z,20.43
2017-12-27T20:07:25.620Z,20.33
2017-12-27T20:09:54.172Z,19.60
2017-12-27T20:12:22.584Z,21.73
2017-12-27T20:14:50.964Z,20.63
2017-12-27T20:17:19.332Z,20.50
2017-12-27T20:19:47.794Z,20.87
2017-12-27T20:22:16.144Z,20.47
2017-12-27T20:24:44.591Z,21.57
2017-12-27T20:27:12.944Z,20.80
2017-12-27T20:29:41.293Z,22.27
2017-12-27T20:32:09.669Z,19.80
2017-12-27T20:34:39.493Z,20.53
2017-12-27T20:37:07.843Z,20.30
2017-12-27T20:39:36.600Z,21.90
2017-12-27T20:42:04.990Z,20.30
2017-12-27T20:44:33.344Z,20.80
2017-12-27T20:47:02.054Z,20.90
2017-12-27T20:49:30.467Z,20.23
2017-12-27T20:51:59.209Z,19.50
2017-12-27T20:54:27.572Z,19.43
2017-12-27T20:56:55.979Z,20.20
2017-12-27T20:59:24.332Z,19.40
2017-12-27T21:01:52.747Z,21.07
2017-12-27T21:04:21.178Z,20.63
2017-12-27T21:06:49.907Z,19.10
2017-12-27T21:09:18.669Z,20.67
2017-12-27T21:11:47.323Z,20.70
2017-12-27T21:14:15.728Z,19.80
2017-12-27T21:16:44.328Z,19.70
2017-12-27T21:19:13.570Z,20.07
2017-12-27T21:21:42.526Z,20.27
2017-12-27T21:24:11.411Z,19.67
2017-12-27T21:26:40.838Z,19.87
2017-12-27T21:29:10.096Z,20.07
2017-12-27T21:31:39.203Z,18.67
2017-12-27T21:34:08.777Z,21.57
2017-12-27T21:36:38.251Z,19.60
2017-12-27T21:39:07.129Z,21.30
2017-12-27T21:41:35.980Z,18.90
2017-12-27T21:44:04.967Z,19.07
2017-12-27T21:46:34.995Z,20.57
2017-12-27T21:49:09.333Z,19.20
2017-12-27T21:51:38.902Z,20.60
2017-12-27T21:54:07.741Z,21.30
2017-12-27T21:56:36.951Z,23.07
2017-12-27T21:59:12.069Z,23.87
2017-12-27T22:01:42.677Z,21.97
2017-12-27T22:04:12.472Z,22.97
2017-12-27T22:06:42.168Z,22.13
2017-12-27T22:09:11.002Z,22.03
2017-12-27T22:11:40.015Z,21.53
2017-12-27T22:14:09.241Z,22.30
2017-12-27T22:16:38.932Z,21.43
2017-12-27T22:19:08.676Z,20.47
2017-12-27T22:21:37.425Z,20.70
2017-12-27T22:24:05.825Z,23.93
2017-12-27T22:26:34.735Z,20.70
2017-12-27T22:29:03.351Z,22.03
2017-12-27T22:31:32.158Z,22.30
2017-12-27T22:34:00.565Z,27.40
2017-12-27T22:36:30.687Z,25.07
2017-12-27T22:39:00.259Z,21.23
2017-12-27T22:41:28.646Z,18.70
2017-12-27T22:43:58.327Z,21.70
2017-12-27T22:46:27.260Z,20.50
2017-12-27T22:48:56.836Z,19.53
2017-12-27T22:51:26.998Z,18.97
2017-12-27T22:53:55.736Z,19.60
2017-12-27T22:56:25.510Z,19.30
2017-12-27T22:58:54.347Z,20.23
2017-12-27T23:01:22.706Z,20.67
2017-12-27T23:03:51.974Z,20.63
2017-12-27T23:06:21.223Z,20.80
2017-12-27T23:08:49.614Z,21.10
2017-12-27T23:11:18.180Z,19.70
2017-12-27T23:13:47.589Z,21.90
2017-12-27T23:16:16.435Z,21.37
2017-12-27T23:18:45.862Z,20.47
2017-12-27T23:21:14.383Z,22.13
2017-12-27T23:23:42.953Z,19.77
2017-12-27T23:26:12.612Z,23.37
2017-12-27T23:28:42.015Z,20.97
2017-12-27T23:31:10.653Z,21.53
2017-12-27T23:33:39.874Z,21.50
2017-12-27T23:36:09.152Z,22.30
2017-12-27T23:38:38.985Z,22.67
2017-12-27T23:41:07.729Z,22.80
2017-12-27T23:43:36.381Z,21.30
2017-12-27T23:46:04.743Z,21.10
2017-12-27T23:48:33.845Z,20.30
2017-12-27T23:51:02.659Z,20.50
2017-12-27T23:53:31.602Z,19.47
2017-12-27T23:56:00.455Z,20.37
2017-12-27T23:58:29.028Z,19.00
